createdAt,value
2018-07-23T00:00:16.395Z,19.93
2018-07-23T00:02:45.303Z,18.60
2018-07-23T00:05:14.303Z,17.53
2018-07-23T00:07:42.860Z,19.67
2018-07-23T00:10:11.890Z,17.07
2018-07-23T00:12:40.551Z,19.90
2018-07-23T00:15:09.993Z,19.00
2018-07-23T00:17:38.971Z,21.33
2018-07-23T00:20:07.511Z,20.57
2018-07-23T00:22:36.514Z,19.40
2018-07-23T00:25:05.493Z,21.33
2018-07-23T00:27:34.471Z,22.03
2018-07-23T00:30:03.494Z,25.40
2018-07-23T00:32:32.711Z,23.80
2018-07-23T00:35:01.713Z,20.50
2018-07-23T00:37:30.661Z,21.37
2018-07-23T00:39:59.628Z,24.23
2018-07-23T00:42:28.554Z,26.13
2018-07-23T00:44:57.526Z,23.93
2018-07-23T00:47:26.451Z,22.27
2018-07-23T00:49:55.435Z,22.07
2018-07-23T00:52:24.452Z,20.60
2018-07-23T00:54:53.373Z,25.33
2018-07-23T00:57:22.413Z,24.53
2018-07-23T00:59:51.354Z,23.33
2018-07-23T01:02:20.413Z,26.07
2018-07-23T01:04:49.366Z,23.37
2018-07-23T01:07:18.331Z,22.00
2018-07-23T01:09:46.883Z,23.40
2018-07-23T01:12:27.112Z,22.20
2018-07-23T01:14:55.991Z,19.67
2018-07-23T01:17:24.941Z,23.43
2018-07-23T01:19:54.737Z,28.20
2018-07-23T01:22:24.902Z,24.60
2018-07-23T01:24:54.687Z,24.13
2018-07-23T01:27:23.572Z,24.13
2018-07-23T01:29:52.590Z,29.93
2018-07-23T01:32:21.672Z,24.43
2018-07-23T01:34:50.422Z,26.57
2018-07-23T01:37:19.689Z,24.43
2018-07-23T01:39:48.571Z,26.73
2018-07-23T01:42:17.458Z,25.17
2018-07-23T01:44:46.422Z,25.77
2018-07-23T01:47:15.410Z,28.97
2018-07-23T01:49:43.877Z,27.97
2018-07-23T01:52:12.786Z,26.27
2018-07-23T01:54:41.670Z,24.57
2018-07-23T01:57:10.632Z,25.27
2018-07-23T01:59:39.540Z,24.77
2018-07-23T02:02:08.479Z,25.13
2018-07-23T02:04:38.574Z,26.80
2018-07-23T02:07:08.170Z,24.80
2018-07-23T02:09:37.110Z,25.63
2018-07-23T02:12:06.152Z,27.27
2018-07-23T02:14:35.103Z,23.57
2018-07-23T02:17:04.016Z,26.00
2018-07-23T02:19:33.070Z,30.70
2018-07-23T02:22:02.003Z,27.27
2018-07-23T02:24:31.065Z,27.07
2018-07-23T02:27:00.076Z,26.60
2018-07-23T02:29:29.028Z,27.60
2018-07-23T02:31:57.529Z,30.60
2018-07-23T02:34:26.454Z,28.80
2018-07-23T02:36:55.428Z,28.43
2018-07-23T02:39:24.339Z,26.83
2018-07-23T02:41:53.351Z,30.93
2018-07-23T02:44:22.311Z,25.70
2018-07-23T02:46:51.312Z,28.53
2018-07-23T02:49:21.009Z,35.53
2018-07-23T02:51:49.953Z,30.17
2018-07-23T02:54:18.933Z,29.10
2018-07-23T02:56:48.006Z,31.80
2018-07-23T02:59:16.986Z,27.20
2018-07-23T03:01:45.932Z,27.67
2018-07-23T03:04:14.843Z,27.03
2018-07-23T03:06:45.101Z,29.63
2018-07-23T03:09:14.103Z,23.13
2018-07-23T03:11:43.179Z,30.97
2018-07-23T03:14:12.513Z,27.00
2018-07-23T03:16:41.446Z,26.30
2018-07-23T03:19:09.963Z,29.70
2018-07-23T03:21:39.016Z,27.47
2018-07-23T03:24:07.968Z,25.67
2018-07-23T03:26:36.989Z,26.50
2018-07-23T03:29:06.026Z,25.10
2018-07-23T03:31:35.071Z,24.47
2018-07-23T03:34:03.963Z,26.33
2018-07-23T03:36:32.931Z,23.27
2018-07-23T03:39:01.981Z,31.13
2018-07-23T03:41:32.016Z,26.87
2018-07-23T03:44:01.012Z,24.93
2018-07-23T03:46:29.990Z,27.53
2018-07-23T03:48:58.974Z,26.30
2018-07-23T03:51:27.458Z,25.80
2018-07-23T03:53:55.984Z,25.93
2018-07-23T03:56:24.939Z,24.40
2018-07-23T03:58:53.898Z,27.03
2018-07-23T04:01:22.847Z,24.63
2018-07-23T04:03:51.819Z,26.10
2018-07-23T04:06:20.786Z,22.40
2018-07-23T04:08:49.446Z,24.10
2018-07-23T04:11:18.448Z,22.43
2018-07-23T04:13:48.506Z,25.80
2018-07-23T04:16:17.389Z,26.63
2018-07-23T04:18:46.496Z,26.53
2018-07-23T04:21:15.523Z,24.97
2018-07-23T04:23:44.551Z,28.07
2018-07-23T04:26:13.602Z,24.10
2018-07-23T04:28:42.555Z,28.77
2018-07-23T04:31:11.474Z,26.33
2018-07-23T04:33:40.490Z,24.57
2018-07-23T04:36:09.455Z,27.57
2018-07-23T04:38:38.446Z,22.63
2018-07-23T04:41:07.312Z,24.97
2018-07-23T04:43:36.382Z,24.33
2018-07-23T04:46:05.588Z,21.67
2018-07-23T04:48:35.194Z,24.53
2018-07-23T04:51:04.159Z,25.60
2018-07-23T04:53:33.110Z,22.67
2018-07-23T04:56:02.531Z,21.33
2018-07-23T04:58:31.512Z,23.90
2018-07-23T05:01:00.531Z,21.13
2018-07-23T05:03:29.532Z,22.70
2018-07-23T05:05:58.470Z,22.13
2018-07-23T05:08:27.487Z,16.73
2018-07-23T05:10:56.477Z,15.73
2018-07-23T05:13:25.508Z,15.83
2018-07-23T05:15:54.622Z,18.47
2018-07-23T05:18:23.549Z,14.43
2018-07-23T05:20:52.086Z,17.30
2018-07-23T05:23:21.121Z,16.67
2018-07-23T05:25:49.609Z,17.40
2018-07-23T05:28:18.622Z,17.03
2018-07-23T05:30:47.639Z,18.53
2018-07-23T05:33:16.714Z,18.33
2018-07-23T05:35:45.638Z,16.27
2018-07-23T05:38:14.611Z,18.70
2018-07-23T05:40:43.576Z,19.53
2018-07-23T05:43:12.571Z,17.27
2018-07-23T05:45:41.683Z,23.37
2018-07-23T05:48:10.670Z,16.10
2018-07-23T05:50:39.714Z,17.10
2018-07-23T05:53:08.832Z,15.53
2018-07-23T05:55:37.798Z,19.53
2018-07-23T05:58:06.767Z,15.87
2018-07-23T06:00:35.750Z,18.87
2018-07-23T06:03:04.655Z,21.37
2018-07-23T06:05:33.614Z,19.00
2018-07-23T06:08:02.834Z,18.63
2018-07-23T06:10:32.051Z,22.87
2018-07-23T06:13:01.096Z,21.93
2018-07-23T06:15:29.627Z,19.57
2018-07-23T06:17:58.614Z,18.60
2018-07-23T06:20:27.622Z,20.87
2018-07-23T06:22:56.593Z,20.17
2018-07-23T06:25:25.553Z,23.83
2018-07-23T06:27:54.890Z,21.03
2018-07-23T06:30:23.938Z,21.33
2018-07-23T06:32:52.855Z,22.53
2018-07-23T06:35:21.851Z,24.23
2018-07-23T06:37:50.891Z,23.63
2018-07-23T06:40:20.004Z,21.13
2018-07-23T06:42:48.960Z,22.00
2018-07-23T06:45:17.864Z,21.27
2018-07-23T06:47:46.849Z,23.83
2018-07-23T06:50:15.833Z,21.10
2018-07-23T06:52:44.804Z,19.77
2018-07-23T06:55:13.861Z,21.17
2018-07-23T06:57:42.790Z,18.90
2018-07-23T07:00:11.893Z,20.60
2018-07-23T07:02:41.750Z,20.20
2018-07-23T07:05:10.679Z,19.60
2018-07-23T07:07:39.263Z,23.30
2018-07-23T07:10:08.376Z,19.40
2018-07-23T07:12:37.482Z,20.43
2018-07-23T07:15:06.613Z,18.50
2018-07-23T07:17:35.467Z,20.83
2018-07-23T07:20:04.434Z,17.63
2018-07-23T07:22:33.491Z,16.73
2018-07-23T07:25:02.566Z,17.07
2018-07-23T07:27:31.551Z,18.50
2018-07-23T07:30:00.408Z,17.40
2018-07-23T07:32:29.415Z,17.80
2018-07-23T07:34:58.537Z,17.77
2018-07-23T07:37:27.495Z,20.13
2018-07-23T07:39:56.691Z,18.67
2018-07-23T07:42:25.650Z,18.37
2018-07-23T07:44:54.738Z,20.67
2018-07-23T07:47:23.694Z,18.83
2018-07-23T07:49:52.608Z,16.93
2018-07-23T07:52:21.581Z,18.37
2018-07-23T07:54:50.529Z,19.50
2018-07-23T07:57:19.467Z,18.80
2018-07-23T07:59:48.484Z,21.90
2018-07-23T08:02:17.452Z,20.80
2018-07-23T08:04:46.450Z,17.23
2018-07-23T08:07:15.409Z,17.90
2018-07-23T08:09:44.370Z,19.57
2018-07-23T08:12:13.413Z,17.93
2018-07-23T08:14:42.369Z,17.40
2018-07-23T08:17:11.398Z,21.43
2018-07-23T08:19:40.517Z,17.77
2018-07-23T08:22:09.483Z,17.00
2018-07-23T08:24:38.470Z,17.43
2018-07-23T08:27:07.471Z,17.97
2018-07-23T08:29:36.530Z,17.27
2018-07-23T08:32:05.508Z,18.73
2018-07-23T08:34:40.885Z,17.37
2018-07-23T08:37:09.964Z,19.27
2018-07-23T08:39:38.993Z,20.03
2018-07-23T08:42:07.890Z,23.50
2018-07-23T08:44:36.814Z,18.93
2018-07-23T08:47:05.815Z,19.77
2018-07-23T08:49:34.867Z,20.17
2018-07-23T08:52:03.853Z,19.47
2018-07-23T08:54:32.840Z,19.57
2018-07-23T08:57:01.763Z,18.93
2018-07-23T08:59:30.790Z,22.17
2018-07-23T09:01:59.751Z,19.57
2018-07-23T09:04:28.801Z,19.23
2018-07-23T09:06:57.306Z,18.00
2018-07-23T09:09:26.238Z,19.93
2018-07-23T09:11:55.235Z,19.83
2018-07-23T09:14:24.211Z,19.30
2018-07-23T09:16:53.100Z,19.23
2018-07-23T09:19:22.143Z,21.47
2018-07-23T09:21:51.132Z,21.47
2018-07-23T09:24:20.070Z,20.90
2018-07-23T09:26:49.131Z,20.87
2018-07-23T09:29:18.092Z,19.50
2018-07-23T09:31:47.037Z,19.30
2018-07-23T09:34:16.074Z,18.47
2018-07-23T09:36:45.060Z,18.57
2018-07-23T09:39:14.090Z,21.63
2018-07-23T09:41:42.624Z,18.10
2018-07-23T09:44:11.794Z,19.47
2018-07-23T09:46:40.845Z,18.57
2018-07-23T09:49:09.885Z,18.43
2018-07-23T09:51:38.893Z,17.67
2018-07-23T09:54:07.863Z,18.70
2018-07-23T09:56:36.850Z,18.67
2018-07-23T09:59:05.882Z,18.80
2018-07-23T10:01:34.873Z,19.03
2018-07-23T10:04:03.809Z,17.17
2018-07-23T10:06:32.241Z,17.83
2018-07-23T10:09:01.250Z,21.17
2018-07-23T10:11:30.302Z,20.67
2018-07-23T10:13:59.349Z,16.83
2018-07-23T10:16:28.322Z,17.40
2018-07-23T10:18:58.542Z,16.83
2018-07-23T10:21:27.565Z,16.90
2018-07-23T10:23:56.518Z,17.77
2018-07-23T10:26:25.699Z,18.27
2018-07-23T10:28:54.669Z,15.83
2018-07-23T10:31:23.802Z,17.70
2018-07-23T10:33:52.818Z,17.17
2018-07-23T10:36:21.755Z,16.50
2018-07-23T10:38:50.380Z,17.37
2018-07-23T10:41:19.431Z,16.23
2018-07-23T10:43:48.415Z,15.83
2018-07-23T10:46:17.391Z,18.23
2018-07-23T10:48:46.378Z,15.10
2018-07-23T10:51:15.283Z,16.40
2018-07-23T10:53:44.309Z,17.33
2018-07-23T10:56:13.399Z,17.27
2018-07-23T10:58:42.583Z,15.93
2018-07-23T11:01:11.556Z,13.43
2018-07-23T11:03:40.476Z,14.30
2018-07-23T11:06:09.576Z,14.43
2018-07-23T11:08:38.590Z,15.70
2018-07-23T11:11:07.627Z,15.10
2018-07-23T11:13:36.654Z,13.33
2018-07-23T11:16:05.710Z,14.17
2018-07-23T11:18:34.731Z,12.77
2018-07-23T11:21:03.729Z,15.70
2018-07-23T11:23:32.691Z,13.23
2018-07-23T11:26:01.690Z,12.93
2018-07-23T11:28:30.852Z,13.03
2018-07-23T11:30:59.950Z,11.70
2018-07-23T11:33:28.931Z,13.63
2018-07-23T11:35:57.927Z,12.00
2018-07-23T11:38:26.992Z,12.40
2018-07-23T11:40:56.079Z,11.23
2018-07-23T11:43:25.114Z,12.40
2018-07-23T11:45:54.100Z,10.90
2018-07-23T11:48:23.139Z,12.30
2018-07-23T11:50:52.274Z,14.07
2018-07-23T11:53:21.273Z,10.80
2018-07-23T11:55:50.477Z,10.90
2018-07-23T11:58:19.050Z,10.93
2018-07-23T12:00:48.011Z,10.80
2018-07-23T12:03:20.133Z,11.17
2018-07-23T12:05:49.205Z,10.37
2018-07-23T12:08:18.155Z,10.30
2018-07-23T12:10:47.143Z,11.30
2018-07-23T12:13:16.180Z,10.57
2018-07-23T12:15:46.095Z,10.50
2018-07-23T12:18:15.292Z,12.33
2018-07-23T12:20:44.272Z,10.20
2018-07-23T12:23:13.191Z,9.57
2018-07-23T12:25:41.729Z,10.23
2018-07-23T12:28:10.774Z,13.27
2018-07-23T12:30:39.215Z,10.07
2018-07-23T12:33:08.289Z,9.37
2018-07-23T12:35:37.391Z,9.30
2018-07-23T12:38:06.249Z,9.40
2018-07-23T12:40:35.253Z,10.47
2018-07-23T12:43:04.337Z,11.43
2018-07-23T12:45:33.331Z,10.50
2018-07-23T12:48:02.340Z,11.33
2018-07-23T12:50:31.294Z,9.57
2018-07-23T12:53:00.160Z,9.40
2018-07-23T12:55:29.171Z,10.57
2018-07-23T12:57:58.137Z,11.90
2018-07-23T13:00:27.152Z,10.50
2018-07-23T13:02:56.240Z,9.67
2018-07-23T13:05:30.335Z,9.93
2018-07-23T13:07:59.978Z,8.63
2018-07-23T13:10:28.951Z,8.83
2018-07-23T13:12:57.928Z,10.30
2018-07-23T13:15:26.932Z,8.20
2018-07-23T13:17:55.951Z,9.50
2018-07-23T13:20:24.934Z,9.53
2018-07-23T13:22:53.929Z,8.90
2018-07-23T13:25:22.959Z,10.90
2018-07-23T13:27:52.188Z,8.70
2018-07-23T13:30:21.153Z,9.53
2018-07-23T13:32:50.395Z,10.47
2018-07-23T13:35:19.373Z,9.10
2018-07-23T13:37:48.737Z,13.17
2018-07-23T13:40:17.364Z,9.43
2018-07-23T13:42:46.440Z,8.63
2018-07-23T13:45:15.423Z,10.07
2018-07-23T13:47:44.473Z,8.87
2018-07-23T13:50:13.411Z,14.10
2018-07-23T13:52:42.386Z,9.93
2018-07-23T13:55:10.985Z,8.70
2018-07-23T13:57:41.019Z,9.37
2018-07-23T14:00:09.978Z,8.80
2018-07-23T14:02:38.934Z,8.27
2018-07-23T14:05:08.050Z,10.60
2018-07-23T14:07:37.073Z,11.27
2018-07-23T14:10:05.545Z,9.23
2018-07-23T14:12:34.642Z,9.23
2018-07-23T14:15:03.564Z,10.30
2018-07-23T14:17:32.555Z,9.37
2018-07-23T14:20:01.661Z,9.53
2018-07-23T14:22:30.750Z,9.33
2018-07-23T14:24:59.671Z,9.77
2018-07-23T14:27:28.650Z,9.80
2018-07-23T14:29:57.553Z,8.67
2018-07-23T14:32:26.574Z,8.43
2018-07-23T14:34:55.514Z,8.53
2018-07-23T14:37:25.752Z,9.83
2018-07-23T14:39:55.272Z,10.90
2018-07-23T14:42:24.298Z,8.68
2018-07-23T14:44:53.358Z,9.70
2018-07-23T14:47:22.390Z,9.00
2018-07-23T14:49:51.430Z,8.40
2018-07-23T14:52:20.334Z,8.75
2018-07-23T14:54:49.312Z,10.38
2018-07-23T14:57:18.332Z,8.88
2018-07-23T14:59:47.925Z,9.63
2018-07-23T15:02:17.069Z,8.48
2018-07-23T15:04:46.051Z,8.80
2018-07-23T15:07:15.091Z,8.13
2018-07-23T15:09:44.057Z,10.05
2018-07-23T15:12:12.553Z,10.40
2018-07-23T15:14:41.048Z,8.15
2018-07-23T15:17:10.114Z,8.75
2018-07-23T15:19:39.093Z,7.60
2018-07-23T15:22:08.320Z,9.93
2018-07-23T15:24:36.830Z,8.65
2018-07-23T15:27:05.828Z,7.97
2018-07-23T15:29:34.859Z,7.97
2018-07-23T15:32:03.857Z,9.08
2018-07-23T15:34:33.006Z,8.03
2018-07-23T15:37:02.014Z,10.08
2018-07-23T15:39:31.279Z,9.18
2018-07-23T15:42:00.194Z,7.85
2018-07-23T15:44:29.364Z,8.50
2018-07-23T15:46:58.057Z,10.08
2018-07-23T15:49:27.063Z,9.30
2018-07-23T15:51:55.597Z,9.37
2018-07-23T15:54:24.617Z,11.60
2018-07-23T15:56:53.541Z,9.80
2018-07-23T15:59:22.680Z,9.93
2018-07-23T16:01:51.791Z,8.67
2018-07-23T16:04:20.833Z,10.87
2018-07-23T16:06:49.794Z,10.53
2018-07-23T16:09:18.771Z,10.37
2018-07-23T16:11:47.747Z,10.83
2018-07-23T16:14:16.795Z,8.00
2018-07-23T16:16:45.731Z,11.67
2018-07-23T16:19:14.772Z,8.47
2018-07-23T16:21:43.302Z,8.43
2018-07-23T16:24:12.577Z,9.97
2018-07-23T16:26:41.572Z,11.87
2018-07-23T16:29:10.652Z,10.77
2018-07-23T16:31:39.628Z,8.57
2018-07-23T16:34:08.754Z,8.63
2018-07-23T16:36:37.887Z,9.53
2018-07-23T16:39:10.351Z,9.53
2018-07-23T16:41:39.334Z,17.13
2018-07-23T16:44:08.735Z,8.93
2018-07-23T16:46:37.934Z,10.90
2018-07-23T16:49:07.005Z,10.67
2018-07-23T16:51:35.541Z,11.33
2018-07-23T16:54:04.499Z,11.07
2018-07-23T16:56:33.491Z,14.37
2018-07-23T16:59:02.710Z,11.10
2018-07-23T17:01:31.696Z,15.10
2018-07-23T17:04:00.903Z,8.53
2018-07-23T17:06:29.851Z,15.33
2018-07-23T17:08:58.448Z,9.07
2018-07-23T17:11:27.471Z,10.13
2018-07-23T17:13:56.654Z,8.97
2018-07-23T17:16:25.651Z,11.10
2018-07-23T17:18:54.671Z,11.23
2018-07-23T17:21:23.651Z,10.63
2018-07-23T17:23:52.609Z,15.80
2018-07-23T17:26:21.153Z,11.00
2018-07-23T17:28:50.190Z,12.60
2018-07-23T17:31:19.231Z,10.73
2018-07-23T17:33:48.333Z,10.93
2018-07-23T17:36:17.374Z,17.00
2018-07-23T17:38:46.253Z,11.53
2018-07-23T17:41:15.320Z,12.27
2018-07-23T17:43:44.319Z,12.77
2018-07-23T17:46:13.425Z,12.73
2018-07-23T17:48:42.532Z,12.47
2018-07-23T17:51:11.516Z,9.00
2018-07-23T17:53:40.453Z,9.03
2018-07-23T17:56:09.451Z,11.93
2018-07-23T17:58:38.471Z,13.53
2018-07-23T18:01:07.532Z,12.87
2018-07-23T18:03:36.728Z,10.60
2018-07-23T18:06:05.750Z,12.17
2018-07-23T18:08:34.652Z,11.17
2018-07-23T18:11:03.642Z,12.40
2018-07-23T18:13:35.393Z,12.20
2018-07-23T18:16:04.389Z,12.70
2018-07-23T18:18:33.431Z,11.10
2018-07-23T18:21:02.453Z,11.23
2018-07-23T18:23:31.795Z,9.90
2018-07-23T18:26:00.790Z,10.57
2018-07-23T18:28:29.797Z,11.03
2018-07-23T18:30:58.803Z,14.17
2018-07-23T18:33:27.255Z,11.57
2018-07-23T18:35:56.335Z,10.73
2018-07-23T18:38:25.426Z,12.63
2018-07-23T18:40:54.391Z,12.57
2018-07-23T18:43:23.343Z,11.70
2018-07-23T18:45:52.265Z,13.60
2018-07-23T18:49:30.535Z,11.30
2018-07-23T18:51:59.593Z,13.10
2018-07-23T18:54:29.796Z,15.33
2018-07-23T18:57:00.012Z,10.63
2018-07-23T18:59:30.071Z,13.43
2018-07-23T19:01:59.685Z,13.87
2018-07-23T19:04:28.721Z,13.63
2018-07-23T19:06:57.751Z,13.93
2018-07-23T19:09:27.431Z,14.00
2018-07-23T19:11:57.390Z,12.90
2018-07-23T19:14:26.356Z,11.17
2018-07-23T19:16:56.234Z,13.53
2018-07-23T19:19:25.294Z,15.57
2018-07-23T19:21:54.428Z,13.23
2018-07-23T19:24:23.491Z,14.67
2018-07-23T19:26:52.513Z,12.63
2018-07-23T19:29:21.545Z,13.17
2018-07-23T19:31:50.084Z,19.13
2018-07-23T19:34:19.057Z,18.67
2018-07-23T19:36:48.250Z,16.00
2018-07-23T19:39:18.731Z,15.17
2018-07-23T19:41:47.232Z,14.77
2018-07-23T19:44:16.247Z,14.07
2018-07-23T19:46:45.307Z,16.47
2018-07-23T19:49:14.371Z,16.10
2018-07-23T19:51:43.428Z,13.00
2018-07-23T19:54:12.752Z,15.57
2018-07-23T19:56:43.173Z,17.67
2018-07-23T19:59:12.174Z,17.10
2018-07-23T20:01:41.214Z,16.17
2018-07-23T20:04:09.748Z,16.37
2018-07-23T20:06:38.930Z,16.20
2018-07-23T20:09:10.007Z,16.63
2018-07-23T20:11:39.052Z,15.00
2018-07-23T20:14:08.122Z,16.00
2018-07-23T20:16:37.032Z,15.43
2018-07-23T20:19:05.654Z,14.00
2018-07-23T20:21:34.928Z,14.20
2018-07-23T20:24:03.951Z,17.10
2018-07-23T20:26:32.955Z,24.40
2018-07-23T20:29:02.092Z,17.07
2018-07-23T20:31:30.640Z,15.73
2018-07-23T20:33:59.761Z,18.60
2018-07-23T20:36:28.868Z,14.43
2018-07-23T20:38:57.878Z,18.83
2018-07-23T20:41:26.915Z,15.93
2018-07-23T20:43:55.894Z,15.27
2018-07-23T20:46:24.933Z,14.63
2018-07-23T20:48:53.910Z,14.40
2018-07-23T20:51:22.994Z,15.37
2018-07-23T20:53:52.027Z,19.43
2018-07-23T20:56:21.060Z,17.10
2018-07-23T20:58:50.200Z,17.60
2018-07-23T21:01:19.233Z,17.47
2018-07-23T21:03:48.198Z,15.00
2018-07-23T21:06:17.213Z,15.27
2018-07-23T21:08:46.171Z,21.30
2018-07-23T21:11:15.253Z,17.17
2018-07-23T21:13:44.330Z,16.27
2018-07-23T21:16:13.216Z,16.57
2018-07-23T21:18:42.231Z,16.30
2018-07-23T21:21:11.594Z,17.07
2018-07-23T21:23:40.637Z,18.83
2018-07-23T21:26:09.718Z,18.40
2018-07-23T21:28:38.663Z,17.47
2018-07-23T21:31:07.970Z,15.70
2018-07-23T21:33:37.040Z,17.70
2018-07-23T21:36:05.538Z,18.53
2018-07-23T21:38:34.086Z,16.53
2018-07-23T21:41:03.075Z,20.37
2018-07-23T21:43:32.959Z,16.37
2018-07-23T21:46:01.964Z,17.87
2018-07-23T21:48:31.141Z,17.43
2018-07-23T21:51:00.136Z,17.70
2018-07-23T21:53:29.174Z,15.87
2018-07-23T21:55:58.171Z,17.53
2018-07-23T21:58:27.230Z,18.43
2018-07-23T22:00:56.217Z,17.07
2018-07-23T22:03:25.243Z,17.47
2018-07-23T22:05:54.205Z,20.43
2018-07-23T22:08:23.235Z,19.37
2018-07-23T22:10:52.257Z,16.23
2018-07-23T22:13:21.007Z,17.80
2018-07-23T22:15:49.968Z,17.63
2018-07-23T22:18:18.954Z,18.13
2018-07-23T22:20:48.017Z,21.03
2018-07-23T22:23:16.529Z,17.93
2018-07-23T22:25:45.488Z,19.90
2018-07-23T22:28:14.494Z,18.50
2018-07-23T22:30:42.963Z,20.77
2018-07-23T22:33:11.544Z,19.27
2018-07-23T22:35:41.583Z,18.10
2018-07-23T22:38:10.551Z,18.60
2018-07-23T22:40:39.598Z,21.60
2018-07-23T22:43:08.679Z,20.20
2018-07-23T22:45:37.670Z,20.13
2018-07-23T22:48:06.613Z,18.90
2018-07-23T22:50:35.629Z,18.80
2018-07-23T22:53:04.186Z,20.10
2018-07-23T22:55:33.162Z,20.40
2018-07-23T22:58:02.174Z,17.37
2018-07-23T23:00:31.332Z,17.83
2018-07-23T23:03:00.317Z,18.40
2018-07-23T23:05:29.350Z,18.47
2018-07-23T23:07:58.423Z,19.10
2018-07-23T23:10:27.399Z,17.93
2018-07-23T23:12:56.426Z,19.80
2018-07-23T23:15:25.309Z,21.00
2018-07-23T23:17:54.290Z,18.87
2018-07-23T23:20:23.247Z,18.57
2018-07-23T23:22:51.799Z,18.73
2018-07-23T23:25:20.789Z,22.53
2018-07-23T23:27:49.694Z,21.37
2018-07-23T23:30:18.734Z,21.07
2018-07-23T23:32:47.751Z,20.23
2018-07-23T23:35:16.692Z,17.90
2018-07-23T23:37:45.222Z,20.83
2018-07-23T23:40:14.645Z,25.33
2018-07-23T23:42:43.713Z,18.77
2018-07-23T23:45:12.812Z,18.83
2018-07-23T23:47:41.871Z,22.53
2018-07-23T23:50:10.763Z,20.40
2018-07-23T23:52:39.756Z,21.57
2018-07-23T23:55:08.201Z,22.03
2018-07-23T23:57:37.229Z,18.40
